createdAt,value
2018-07-11T00:00:59.303Z,85.60
2018-07-11T00:03:38.974Z,85.70
2018-07-11T00:06:07.453Z,86.10
2018-07-11T00:08:35.938Z,86.40
2018-07-11T00:11:04.474Z,87.20
2018-07-11T00:13:33.117Z,86.50
2018-07-11T00:16:01.611Z,86.60
2018-07-11T00:18:30.641Z,86.60
2018-07-11T00:20:59.291Z,86.90
2018-07-11T00:23:27.931Z,87.00
2018-07-11T00:25:56.445Z,87.00
2018-07-11T00:28:24.966Z,87.30
2018-07-11T00:30:53.497Z,87.50
2018-07-11T00:33:22.119Z,87.80
2018-07-11T00:35:50.602Z,87.90
2018-07-11T00:38:19.411Z,88.80
2018-07-11T00:40:48.074Z,88.10
2018-07-11T00:43:16.602Z,88.20
2018-07-11T00:45:45.247Z,88.40
2018-07-11T00:48:14.238Z,88.40
2018-07-11T00:50:42.779Z,88.70
2018-07-11T00:53:11.718Z,88.90
2018-07-11T00:55:40.255Z,89.10
2018-07-11T00:58:22.310Z,89.30
2018-07-11T01:01:01.916Z,89.50
2018-07-11T01:03:30.713Z,89.70
2018-07-11T01:05:59.333Z,89.70
2018-07-11T01:08:28.524Z,89.90
2018-07-11T01:10:58.844Z,90.00
2018-07-11T01:13:27.460Z,90.10
2018-07-11T01:15:56.132Z,90.20
2018-07-11T01:18:24.916Z,90.20
2018-07-11T01:20:53.598Z,90.40
2018-07-11T01:23:22.193Z,90.50
2018-07-11T01:25:50.745Z,90.60
2018-07-11T01:28:19.333Z,90.70
2018-07-11T01:30:47.949Z,90.70
2018-07-11T01:33:16.620Z,91.10
2018-07-11T01:35:45.235Z,90.80
2018-07-11T01:38:13.865Z,90.90
2018-07-11T01:40:42.464Z,90.90
2018-07-11T01:43:11.090Z,90.90
2018-07-11T01:45:39.705Z,90.80
2018-07-11T01:48:08.329Z,90.90
2018-07-11T01:50:36.985Z,90.90
2018-07-11T01:53:05.681Z,90.90
2018-07-11T01:55:34.340Z,91.00
2018-07-11T01:58:02.996Z,91.00
2018-07-11T02:03:00.096Z,91.10
2018-07-11T02:05:28.718Z,91.10
2018-07-11T02:07:57.408Z,91.20
2018-07-11T02:10:26.120Z,91.30
2018-07-11T02:12:54.737Z,91.30
2018-07-11T02:15:23.406Z,91.70
2018-07-11T02:17:52.769Z,91.40
2018-07-11T02:20:21.409Z,91.50
2018-07-11T02:22:53.992Z,91.50
2018-07-11T02:25:22.784Z,91.50
2018-07-11T02:27:51.521Z,91.60
2018-07-11T02:30:20.201Z,91.60
2018-07-11T02:32:49.173Z,91.50
2018-07-11T02:35:17.973Z,91.60
2018-07-11T02:37:46.609Z,91.70
2018-07-11T02:40:15.219Z,91.90
2018-07-11T02:42:43.817Z,92.10
2018-07-11T02:45:12.522Z,92.20
2018-07-11T02:47:42.092Z,92.30
2018-07-11T02:50:10.860Z,92.40
2018-07-11T02:52:39.557Z,92.50
2018-07-11T02:55:08.306Z,92.60
2018-07-11T02:57:36.921Z,92.70
2018-07-11T03:00:06.029Z,92.80
2018-07-11T03:02:34.656Z,92.70
2018-07-11T03:05:03.360Z,92.80
2018-07-11T03:07:32.107Z,92.80
2018-07-11T03:10:00.688Z,92.90
2018-07-11T03:12:29.272Z,93.00
2018-07-11T03:14:57.940Z,93.10
2018-07-11T03:17:26.604Z,93.10
2018-07-11T03:19:55.222Z,93.20
2018-07-11T03:24:52.087Z,93.60
2018-07-11T03:27:20.722Z,93.60
2018-07-11T03:29:49.353Z,93.70
2018-07-11T03:32:17.945Z,93.80
2018-07-11T03:34:46.505Z,93.90
2018-07-11T03:37:15.201Z,94.00
2018-07-11T03:39:43.793Z,94.00
2018-07-11T03:42:12.384Z,94.10
2018-07-11T03:44:41.097Z,94.10
2018-07-11T03:47:09.673Z,94.30
2018-07-11T03:49:38.253Z,94.40
2018-07-11T03:52:07.120Z,94.50
2018-07-11T03:54:35.706Z,94.60
2018-07-11T03:57:04.288Z,94.60
2018-07-11T03:59:32.973Z,94.70
2018-07-11T04:02:01.519Z,94.70
2018-07-11T04:04:30.050Z,94.60
2018-07-11T04:06:58.608Z,94.50
2018-07-11T04:09:27.129Z,94.40
2018-07-11T04:11:56.027Z,94.30
2018-07-11T04:14:24.600Z,94.20
2018-07-11T04:16:53.188Z,94.00
2018-07-11T04:19:21.740Z,93.90
2018-07-11T04:21:50.582Z,93.60
2018-07-11T04:24:19.177Z,93.50
2018-07-11T04:26:47.791Z,93.40
2018-07-11T04:29:16.485Z,93.10
2018-07-11T04:31:45.137Z,92.80
2018-07-11T04:34:13.785Z,92.60
2018-07-11T04:36:42.561Z,92.80
2018-07-11T04:39:12.230Z,92.10
2018-07-11T04:41:40.956Z,91.80
2018-07-11T04:44:09.616Z,91.80
2018-07-11T04:46:38.241Z,91.20
2018-07-11T04:49:06.872Z,91.00
2018-07-11T04:51:35.612Z,90.80
2018-07-11T04:54:04.372Z,90.40
2018-07-11T04:56:33.012Z,90.30
2018-07-11T04:59:01.697Z,89.90
2018-07-11T05:01:30.279Z,89.80
2018-07-11T05:03:58.865Z,89.20
2018-07-11T05:06:27.490Z,88.50
2018-07-11T05:08:56.046Z,88.10
2018-07-11T05:11:24.629Z,86.80
2018-07-11T05:13:53.230Z,86.30
2018-07-11T05:16:21.782Z,85.90
2018-07-11T05:18:50.472Z,84.40
2018-07-11T05:21:19.045Z,83.20
2018-07-11T05:23:47.646Z,83.00
2018-07-11T05:26:16.328Z,82.90
2018-07-11T05:28:45.093Z,82.10
2018-07-11T05:31:13.664Z,81.90
2018-07-11T05:33:42.204Z,81.40
2018-07-11T05:36:10.781Z,80.60
2018-07-11T05:38:39.352Z,81.10
2018-07-11T05:41:07.961Z,80.00
2018-07-11T05:43:36.612Z,80.00
2018-07-11T05:46:05.495Z,80.00
2018-07-11T05:48:34.055Z,80.30
2018-07-11T05:51:02.728Z,80.40
2018-07-11T05:53:31.272Z,80.20
2018-07-11T05:55:59.814Z,80.80
2018-07-11T05:58:28.425Z,80.10
2018-07-11T06:00:57.007Z,80.30
2018-07-11T06:03:25.576Z,80.40
2018-07-11T06:05:54.210Z,80.30
2018-07-11T06:08:22.792Z,80.00
2018-07-11T06:10:51.328Z,80.00
2018-07-11T06:13:20.018Z,79.20
2018-07-11T06:18:17.609Z,77.60
2018-07-11T06:20:46.296Z,77.80
2018-07-11T06:23:14.837Z,76.80
2018-07-11T06:25:43.389Z,75.70
2018-07-11T06:28:12.021Z,74.60
2018-07-11T06:30:40.705Z,74.00
2018-07-11T06:33:09.284Z,73.50
2018-07-11T06:38:06.192Z,70.50
2018-07-11T06:40:34.772Z,70.30
2018-07-11T06:43:03.401Z,69.00
2018-07-11T06:45:31.984Z,68.10
2018-07-11T06:48:00.632Z,66.70
2018-07-11T06:50:29.854Z,65.40
2018-07-11T06:52:58.431Z,64.80
2018-07-11T06:55:27.012Z,64.60
2018-07-11T06:57:55.709Z,64.30
2018-07-11T07:00:24.260Z,63.70
2018-07-11T07:02:53.157Z,63.50
2018-07-11T07:05:21.728Z,63.30
2018-07-11T07:07:50.697Z,63.10
2018-07-11T07:10:19.461Z,63.00
2018-07-11T07:12:48.135Z,62.90
2018-07-11T07:15:17.213Z,62.70
2018-07-11T07:17:45.810Z,61.80
2018-07-11T07:20:14.428Z,62.50
2018-07-11T07:22:42.981Z,61.20
2018-07-11T07:25:11.560Z,60.60
2018-07-11T07:27:40.165Z,60.60
2018-07-11T07:30:08.785Z,60.20
2018-07-11T07:32:37.342Z,60.20
2018-07-11T07:35:06.041Z,60.10
2018-07-11T07:37:34.596Z,59.80
2018-07-11T07:40:03.222Z,59.80
2018-07-11T07:42:31.909Z,59.60
2018-07-11T07:45:00.514Z,59.80
2018-07-11T07:47:34.345Z,59.70
2018-07-11T07:50:02.964Z,60.30
2018-07-11T07:52:31.581Z,60.10
2018-07-11T07:55:00.229Z,59.80
2018-07-11T07:57:29.169Z,59.70
2018-07-11T07:59:57.769Z,58.90
2018-07-11T08:02:26.449Z,59.00
2018-07-11T08:04:55.941Z,58.80
2018-07-11T08:07:24.525Z,58.90
2018-07-11T08:09:53.153Z,58.60
2018-07-11T08:12:21.737Z,58.90
2018-07-11T08:14:50.578Z,58.20
2018-07-11T08:17:19.178Z,58.30
2018-07-11T08:19:47.692Z,57.50
2018-07-11T08:22:27.458Z,57.10
2018-07-11T08:25:07.035Z,57.20
2018-07-11T08:27:54.628Z,57.60
2018-07-11T08:30:34.769Z,57.10
2018-07-11T08:33:26.066Z,57.80
2018-07-11T08:36:13.667Z,58.10
2018-07-11T08:40:58.634Z,57.50
2018-07-11T08:44:08.007Z,57.10
2018-07-11T08:47:52.857Z,55.90
2018-07-11T08:51:41.757Z,55.90
2018-07-11T08:54:29.247Z,55.90
2018-07-11T08:59:12.399Z,54.50
2018-07-11T09:03:54.225Z,54.60
2018-07-11T09:06:35.618Z,54.70
2018-07-11T09:11:19.613Z,54.90
2018-07-11T09:13:59.154Z,54.70
2018-07-11T09:18:44.771Z,54.90
2018-07-11T09:21:29.016Z,54.70
2018-07-11T09:25:03.193Z,54.20
2018-07-11T09:27:31.683Z,54.00
2018-07-11T09:30:00.167Z,52.00
2018-07-11T09:32:28.725Z,50.90
2018-07-11T09:34:57.224Z,50.90
2018-07-11T09:37:25.722Z,49.80
2018-07-11T09:39:54.250Z,49.50
2018-07-11T09:42:22.798Z,49.80
2018-07-11T09:44:51.266Z,50.20
2018-07-11T09:47:24.891Z,50.30
2018-07-11T09:49:53.385Z,49.50
2018-07-11T09:52:21.842Z,48.20
2018-07-11T09:54:50.611Z,48.40
2018-07-11T09:57:19.192Z,48.50
2018-07-11T09:59:47.727Z,47.70
2018-07-11T10:02:16.322Z,47.60
2018-07-11T10:04:44.870Z,48.50
2018-07-11T10:07:13.702Z,48.00
2018-07-11T10:09:42.304Z,48.30
2018-07-11T10:12:10.778Z,48.10
2018-07-11T10:14:39.197Z,47.30
2018-07-11T10:17:07.698Z,47.30
2018-07-11T10:19:36.169Z,47.90
2018-07-11T10:22:04.639Z,47.50
2018-07-11T10:24:33.147Z,46.40
2018-07-11T10:27:01.601Z,47.40
2018-07-11T10:29:30.026Z,47.70
2018-07-11T10:31:58.595Z,47.60
2018-07-11T10:34:27.075Z,46.70
2018-07-11T10:36:55.559Z,46.70
2018-07-11T10:39:24.150Z,46.60
2018-07-11T10:41:52.630Z,47.40
2018-07-11T10:44:21.649Z,47.20
2018-07-11T10:46:54.218Z,47.20
2018-07-11T10:49:22.718Z,46.50
2018-07-11T10:51:51.233Z,46.70
2018-07-11T10:54:19.783Z,47.90
2018-07-11T10:56:48.270Z,48.00
2018-07-11T10:59:16.766Z,47.70
2018-07-11T11:01:45.286Z,47.60
2018-07-11T11:04:15.658Z,45.90
2018-07-11T11:06:44.250Z,45.50
2018-07-11T11:09:12.803Z,45.40
2018-07-11T11:11:41.280Z,45.50
2018-07-11T11:14:09.879Z,46.50
2018-07-11T11:16:38.398Z,45.80
2018-07-11T11:19:06.941Z,44.50
2018-07-11T11:21:35.446Z,45.30
2018-07-11T11:24:03.973Z,45.70
2018-07-11T11:26:32.449Z,45.30
2018-07-11T11:29:00.912Z,44.60
2018-07-11T11:31:29.462Z,43.60
2018-07-11T11:33:57.911Z,44.90
2018-07-11T11:36:26.427Z,46.00
2018-07-11T11:38:54.935Z,45.90
2018-07-11T11:41:23.454Z,46.30
2018-07-11T11:43:51.917Z,46.80
2018-07-11T11:46:20.531Z,46.30
2018-07-11T11:48:48.998Z,45.60
2018-07-11T11:51:17.470Z,44.40
2018-07-11T11:53:45.977Z,45.80
2018-07-11T11:56:14.434Z,45.60
2018-07-11T11:58:42.946Z,45.80
2018-07-11T12:01:11.629Z,46.90
2018-07-11T12:03:40.101Z,47.20
2018-07-11T12:06:08.600Z,46.90
2018-07-11T12:08:37.118Z,47.10
2018-07-11T12:11:05.570Z,46.30
2018-07-11T12:13:34.070Z,45.60
2018-07-11T12:16:04.333Z,43.20
2018-07-11T12:18:32.778Z,44.00
2018-07-11T12:21:01.364Z,43.40
2018-07-11T12:23:29.986Z,43.90
2018-07-11T12:26:09.747Z,43.80
2018-07-11T12:28:38.289Z,43.00
2018-07-11T12:31:06.921Z,42.50
2018-07-11T12:33:35.742Z,42.60
2018-07-11T12:36:04.490Z,42.90
2018-07-11T12:38:33.831Z,41.50
2018-07-11T12:41:02.383Z,41.80
2018-07-11T12:43:31.033Z,41.30
2018-07-11T12:45:59.683Z,40.40
2018-07-11T12:48:33.391Z,41.20
2018-07-11T12:51:02.525Z,41.20
2018-07-11T12:53:31.010Z,41.30
2018-07-11T12:55:59.742Z,40.40
2018-07-11T12:58:28.241Z,39.70
2018-07-11T13:00:56.866Z,39.80
2018-07-11T13:03:25.934Z,39.90
2018-07-11T13:05:54.472Z,40.00
2018-07-11T13:08:23.785Z,40.10
2018-07-11T13:10:52.314Z,39.10
2018-07-11T13:13:20.890Z,39.50
2018-07-11T13:15:49.419Z,40.80
2018-07-11T13:18:17.952Z,40.80
2018-07-11T13:20:46.399Z,40.70
2018-07-11T13:23:14.850Z,41.30
2018-07-11T13:25:43.400Z,41.10
2018-07-11T13:28:11.866Z,41.30
2018-07-11T13:30:40.397Z,39.50
2018-07-11T13:33:08.990Z,39.90
2018-07-11T13:35:37.474Z,39.00
2018-07-11T13:38:05.984Z,39.50
2018-07-11T13:40:34.590Z,40.20
2018-07-11T13:43:03.090Z,40.90
2018-07-11T13:45:31.569Z,41.00
2018-07-11T13:48:03.202Z,40.70
2018-07-11T13:50:33.709Z,40.90
2018-07-11T13:53:02.534Z,40.90
2018-07-11T13:55:31.674Z,40.80
2018-07-11T13:58:01.761Z,40.30
2018-07-11T14:00:30.750Z,40.50
2018-07-11T14:05:27.409Z,40.00
2018-07-11T14:07:55.914Z,39.80
2018-07-11T14:10:24.457Z,39.40
2018-07-11T14:12:53.080Z,39.70
2018-07-11T14:15:21.661Z,39.10
2018-07-11T14:17:50.188Z,39.50
2018-07-11T14:20:18.756Z,39.10
2018-07-11T14:22:48.044Z,39.60
2018-07-11T14:25:17.554Z,40.10
2018-07-11T14:27:48.301Z,40.10
2018-07-11T14:30:16.864Z,39.50
2018-07-11T14:32:50.610Z,39.40
2018-07-11T14:35:19.413Z,39.20
2018-07-11T14:37:49.262Z,39.40
2018-07-11T14:40:17.913Z,39.70
2018-07-11T14:42:46.697Z,39.50
2018-07-11T14:45:15.622Z,39.70
2018-07-11T14:47:49.368Z,39.80
2018-07-11T14:50:24.133Z,40.00
2018-07-11T14:52:52.929Z,39.90
2018-07-11T14:55:21.431Z,39.60
2018-07-11T14:57:50.406Z,39.70
2018-07-11T15:00:18.911Z,39.70
2018-07-11T15:02:47.573Z,39.70
2018-07-11T15:05:16.018Z,40.20
2018-07-11T15:07:44.658Z,39.90
2018-07-11T15:10:13.285Z,39.90
2018-07-11T15:12:41.837Z,40.00
2018-07-11T15:15:10.417Z,40.10
2018-07-11T15:17:41.558Z,39.80
2018-07-11T15:20:10.107Z,39.70
2018-07-11T15:22:38.657Z,40.00
2018-07-11T15:25:07.158Z,39.70
2018-07-11T15:27:35.782Z,39.00
2018-07-11T15:30:04.330Z,38.80
2018-07-11T15:32:33.109Z,38.90
2018-07-11T15:35:01.583Z,38.70
2018-07-11T15:37:30.208Z,38.40
2018-07-11T15:39:59.157Z,38.40
2018-07-11T15:42:27.821Z,39.00
2018-07-11T15:44:56.470Z,39.10
2018-07-11T15:47:25.338Z,38.80
2018-07-11T15:49:54.393Z,38.20
2018-07-11T15:52:24.583Z,38.30
2018-07-11T15:54:55.872Z,37.80
2018-07-11T15:57:37.618Z,37.80
2018-07-11T16:00:09.990Z,38.00
2018-07-11T16:02:45.225Z,37.20
2018-07-11T16:05:17.860Z,36.50
2018-07-11T16:07:48.070Z,36.20
2018-07-11T16:10:16.739Z,35.30
2018-07-11T16:12:45.241Z,35.20
2018-07-11T16:15:13.750Z,34.30
2018-07-11T16:17:42.352Z,33.60
2018-07-11T16:20:10.827Z,32.60
2018-07-11T16:22:39.362Z,31.60
2018-07-11T16:25:08.078Z,30.90
2018-07-11T16:34:20.724Z,29.80
2018-07-11T16:36:49.362Z,29.20
2018-07-11T16:39:18.305Z,29.30
2018-07-11T16:41:46.873Z,29.70
2018-07-11T16:44:15.384Z,29.70
2018-07-11T16:46:43.927Z,29.70
2018-07-11T16:49:12.530Z,29.70
2018-07-11T16:51:41.089Z,29.50
2018-07-11T16:54:09.758Z,29.30
2018-07-11T16:56:38.951Z,29.60
2018-07-11T16:59:10.256Z,29.70
2018-07-11T17:01:48.970Z,29.80
2018-07-11T17:04:17.515Z,29.90
2018-07-11T17:06:46.022Z,29.70
2018-07-11T17:09:14.586Z,30.00
2018-07-11T17:11:43.090Z,30.40
2018-07-11T17:14:12.551Z,30.90
2018-07-11T17:16:53.193Z,30.80
2018-07-11T17:19:29.951Z,31.70
2018-07-11T17:22:00.378Z,31.90
2018-07-11T17:24:29.648Z,31.70
2018-07-11T17:26:59.151Z,31.90
2018-07-11T17:29:29.129Z,31.70
2018-07-11T17:32:08.584Z,31.90
2018-07-11T17:34:41.483Z,31.30
2018-07-11T17:37:11.840Z,31.60
2018-07-11T17:39:49.781Z,31.60
2018-07-11T17:42:24.174Z,32.50
2018-07-11T17:45:00.963Z,34.40
2018-07-11T17:47:31.442Z,35.30
2018-07-11T17:50:04.534Z,36.30
2018-07-11T17:52:55.124Z,37.10
2018-07-11T17:55:31.890Z,37.90
2018-07-11T17:58:04.763Z,39.40
2018-07-11T18:00:57.850Z,41.00
2018-07-11T18:03:31.854Z,41.80
2018-07-11T18:06:40.970Z,42.90
2018-07-11T18:09:10.855Z,43.80
2018-07-11T18:11:57.339Z,44.90
2018-07-11T18:14:38.218Z,45.60
2018-07-11T18:19:26.161Z,45.90
2018-07-11T18:22:08.449Z,46.50
2018-07-11T18:24:51.153Z,47.70
2018-07-11T18:27:34.126Z,47.70
2018-07-11T18:32:18.138Z,47.90
2018-07-11T18:35:30.078Z,48.00
2018-07-11T18:38:14.743Z,48.70
2018-07-11T18:41:00.997Z,48.90
2018-07-11T18:45:44.110Z,49.00
2018-07-11T18:49:20.100Z,49.10
2018-07-11T18:51:56.594Z,49.20
2018-07-11T18:54:34.146Z,49.00
2018-07-11T18:57:06.366Z,49.70
2018-07-11T19:00:45.246Z,49.50
2018-07-11T19:05:53.987Z,50.20
2018-07-11T19:08:37.743Z,50.50
2018-07-11T19:13:52.961Z,51.30
2018-07-11T19:16:28.496Z,51.80
2018-07-11T19:19:07.269Z,52.30
2018-07-11T19:21:51.602Z,52.70
2018-07-11T19:24:20.401Z,52.80
2018-07-11T19:26:55.518Z,53.40
2018-07-11T19:29:38.138Z,53.70
2018-07-11T19:32:20.494Z,54.00
2018-07-11T19:35:07.471Z,54.20
2018-07-11T19:37:48.262Z,54.70
2018-07-11T19:40:29.575Z,55.00
2018-07-11T19:45:09.006Z,55.10
2018-07-11T19:47:47.263Z,55.30
2018-07-11T19:52:29.158Z,55.40
2018-07-11T19:55:11.535Z,55.40
2018-07-11T19:57:40.043Z,56.00
2018-07-11T20:00:08.686Z,56.20
2018-07-11T20:02:38.311Z,56.50
2018-07-11T20:05:06.858Z,56.90
2018-07-11T20:07:35.530Z,57.10
2018-07-11T20:10:04.350Z,57.30
2018-07-11T20:12:33.242Z,57.60
2018-07-11T20:15:01.783Z,57.80
2018-07-11T20:17:30.286Z,58.00
2018-07-11T20:19:58.793Z,58.30
2018-07-11T20:22:27.241Z,58.60
2018-07-11T20:24:55.814Z,58.90
2018-07-11T20:27:24.338Z,59.20
2018-07-11T20:29:52.814Z,59.30
2018-07-11T20:32:21.365Z,59.40
2018-07-11T20:34:49.858Z,59.60
2018-07-11T20:37:18.378Z,59.80
2018-07-11T20:39:47.009Z,59.90
2018-07-11T20:42:15.526Z,60.00
2018-07-11T20:44:44.077Z,60.50
2018-07-11T20:47:12.742Z,60.80
2018-07-11T20:49:41.338Z,61.30
2018-07-11T20:52:09.936Z,61.70
2018-07-11T20:54:38.471Z,62.20
2018-07-11T20:57:07.038Z,62.70
2018-07-11T20:59:46.661Z,63.00
2018-07-11T21:02:26.361Z,63.30
2018-07-11T21:05:42.608Z,63.70
2018-07-11T21:08:30.827Z,63.90
2018-07-11T21:15:16.577Z,64.60
2018-07-11T21:17:57.979Z,64.60
2018-07-11T21:20:26.484Z,65.50
2018-07-11T21:22:55.074Z,66.70
2018-07-11T21:25:23.566Z,66.20
2018-07-11T21:27:52.078Z,66.50
2018-07-11T21:30:20.542Z,66.60
2018-07-11T21:32:48.996Z,66.70
2018-07-11T21:35:17.459Z,67.10
2018-07-11T21:37:46.062Z,67.50
2018-07-11T21:40:14.594Z,68.00
2018-07-11T21:42:43.127Z,68.40
2018-07-11T21:45:11.559Z,68.40
2018-07-11T21:47:39.981Z,68.10
2018-07-11T21:50:08.608Z,68.50
2018-07-11T21:52:37.053Z,68.80
2018-07-11T21:55:05.662Z,69.60
2018-07-11T21:57:34.297Z,69.30
2018-07-11T22:00:02.837Z,70.30
2018-07-11T22:02:31.473Z,71.10
2018-07-11T22:04:59.980Z,71.70
2018-07-11T22:07:28.518Z,72.30
2018-07-11T22:09:57.006Z,72.70
2018-07-11T22:12:25.962Z,73.30
2018-07-11T22:14:54.390Z,73.60
2018-07-11T22:19:34.015Z,73.80
2018-07-11T22:22:01.319Z,74.00
2018-07-11T22:24:28.631Z,74.20
2018-07-11T22:26:55.982Z,74.40
2018-07-11T22:29:23.294Z,74.50
2018-07-11T22:34:18.280Z,74.90
2018-07-11T22:36:45.596Z,74.90
2018-07-11T22:39:12.915Z,75.00
2018-07-11T22:41:40.274Z,75.20
2018-07-11T22:44:07.577Z,75.10
2018-07-11T22:46:34.881Z,75.90
2018-07-11T22:49:02.243Z,75.00
2018-07-11T22:51:29.545Z,74.90
2018-07-11T22:53:56.858Z,74.50
2018-07-11T22:56:24.254Z,75.10
2018-07-11T22:58:51.721Z,75.60
2018-07-11T23:01:19.038Z,76.20
2018-07-11T23:03:46.384Z,76.70
2018-07-11T23:06:13.683Z,77.20
2018-07-11T23:08:40.986Z,77.60
2018-07-11T23:11:08.318Z,77.60
2018-07-11T23:13:35.618Z,77.80
2018-07-11T23:16:02.914Z,78.30
2018-07-11T23:18:30.278Z,79.40
2018-07-11T23:20:57.599Z,79.00
2018-07-11T23:23:24.926Z,79.10
2018-07-11T23:25:52.267Z,79.10
2018-07-11T23:28:19.571Z,79.50
2018-07-11T23:30:46.870Z,79.60
2018-07-11T23:33:14.251Z,79.90
2018-07-11T23:35:41.558Z,80.00
2018-07-11T23:38:08.874Z,80.40
2018-07-11T23:43:03.837Z,80.90
2018-07-11T23:45:31.146Z,80.90
2018-07-11T23:47:58.614Z,81.10
2018-07-11T23:50:25.915Z,81.10
2018-07-11T23:52:53.218Z,80.90
2018-07-11T23:55:20.542Z,80.60
2018-07-11T23:57:47.849Z,80.40
